createdAt,value
2019-03-12T00:08:41.214Z,3.16
2019-03-12T00:19:24.786Z,2.74
2019-03-12T00:30:07.255Z,2.59
2019-03-12T00:40:50.051Z,2.38
2019-03-12T00:51:34.757Z,2.13
2019-03-12T01:02:19.645Z,1.94
2019-03-12T01:13:05.436Z,1.83
2019-03-12T01:23:43.416Z,1.70
2019-03-12T01:34:21.289Z,1.59
2019-03-12T01:45:06.010Z,1.64
2019-03-12T01:55:51.542Z,1.64
2019-03-12T02:06:27.228Z,1.81
2019-03-12T02:17:10.666Z,1.96
2019-03-12T02:27:55.642Z,1.99
2019-03-12T02:38:40.197Z,1.88
2019-03-12T02:49:17.023Z,1.85
2019-03-12T02:59:52.117Z,1.63
2019-03-12T03:10:36.850Z,1.75
2019-03-12T03:21:21.048Z,1.77
2019-03-12T03:32:05.175Z,1.79
2019-03-12T03:42:49.785Z,1.82
2019-03-12T03:53:29.345Z,2.01
2019-03-12T04:04:13.833Z,2.15
2019-03-12T04:14:58.788Z,2.26
2019-03-12T04:25:44.322Z,2.34
2019-03-12T04:36:29.562Z,2.41
2019-03-12T04:47:13.465Z,2.38
2019-03-12T04:57:58.638Z,2.39
2019-03-12T05:08:39.698Z,2.50
2019-03-12T05:19:24.760Z,2.57
2019-03-12T05:30:08.095Z,2.55
2019-03-12T05:40:52.771Z,2.60
2019-03-12T05:51:38.777Z,2.62
2019-03-12T06:02:24.545Z,2.66
2019-03-12T06:13:08.767Z,2.80
2019-03-12T06:23:52.649Z,3.00
2019-03-12T06:34:36.769Z,3.14
2019-03-12T06:45:20.234Z,3.24
2019-03-12T06:56:05.314Z,3.47
2019-03-12T07:06:41.706Z,3.72
2019-03-12T07:17:26.581Z,3.90
2019-03-12T07:28:09.548Z,4.12
2019-03-12T07:38:55.112Z,4.26
2019-03-12T07:49:40.676Z,4.60
2019-03-12T08:00:26.228Z,4.90
2019-03-12T08:11:12.299Z,5.22
2019-03-12T08:21:58.951Z,5.51
2019-03-12T08:32:41.728Z,5.81
2019-03-12T08:43:25.478Z,6.11
2019-03-12T08:54:10.327Z,6.30
2019-03-12T09:04:54.482Z,6.84
2019-03-12T09:15:40.855Z,7.33
2019-03-12T09:26:26.162Z,7.91
2019-03-12T09:37:09.194Z,8.28
2019-03-12T09:47:50.594Z,8.36
2019-03-12T09:58:24.874Z,8.62
2019-03-12T10:08:59.287Z,8.72
2019-03-12T10:19:37.815Z,8.70
2019-03-12T10:30:16.445Z,8.72
2019-03-12T10:40:57.821Z,8.92
2019-03-12T10:51:32.161Z,8.80
2019-03-12T11:02:11.976Z,9.16
2019-03-12T11:12:53.446Z,9.57
2019-03-12T11:23:37.790Z,9.85
2019-03-12T11:34:18.929Z,9.62
2019-03-12T11:44:59.734Z,9.65
2019-03-12T11:55:35.035Z,10.04
2019-03-12T12:06:11.611Z,10.55
2019-03-12T12:16:54.403Z,11.06
2019-03-12T12:27:34.554Z,10.95
2019-03-12T12:38:16.869Z,10.79
2019-03-12T12:48:58.881Z,10.81
2019-03-12T12:59:34.419Z,10.68
2019-03-12T13:10:15.977Z,10.49
2019-03-12T13:20:47.240Z,10.50
2019-03-12T13:31:30.072Z,10.62
2019-03-12T13:42:06.603Z,10.52
2019-03-12T13:52:48.271Z,10.64
2019-03-12T14:03:31.617Z,10.48
2019-03-12T14:14:16.896Z,10.40
2019-03-12T14:25:03.126Z,10.39
2019-03-12T14:35:51.505Z,10.32
2019-03-12T14:46:28.591Z,10.21
2019-03-12T14:57:15.289Z,10.18
2019-03-12T15:07:59.826Z,10.17
2019-03-12T15:18:44.285Z,10.12
2019-03-12T15:29:29.992Z,9.98
2019-03-12T15:40:05.927Z,9.97
2019-03-12T15:50:50.768Z,9.93
2019-03-12T16:01:36.536Z,9.89
2019-03-12T16:12:20.598Z,9.78
2019-03-12T16:23:06.142Z,9.65
2019-03-12T16:33:50.885Z,9.52
2019-03-12T16:44:29.397Z,9.52
2019-03-12T16:55:15.451Z,9.49
2019-03-12T17:05:55.149Z,9.47
2019-03-12T17:16:39.770Z,9.48
2019-03-12T17:27:25.595Z,9.50
2019-03-12T17:38:10.582Z,9.47
2019-03-12T17:48:56.286Z,9.43
2019-03-12T17:59:42.224Z,9.39
2019-03-12T18:10:26.745Z,9.32
2019-03-12T18:21:09.571Z,9.25
2019-03-12T18:31:53.668Z,9.26
2019-03-12T18:42:26.419Z,9.22
2019-03-12T18:53:12.954Z,9.18
2019-03-12T19:03:50.873Z,9.11
2019-03-12T19:14:35.480Z,9.17
2019-03-12T19:25:16.739Z,9.29
2019-03-12T19:36:00.182Z,9.33
2019-03-12T19:46:38.134Z,9.32
2019-03-12T19:57:20.557Z,9.40
2019-03-12T20:08:06.397Z,9.82
2019-03-12T20:18:52.344Z,10.31
2019-03-12T20:29:31.787Z,10.34
2019-03-12T20:40:16.024Z,10.27
2019-03-12T20:50:58.826Z,10.19
2019-03-12T21:01:43.832Z,10.20
2019-03-12T21:12:28.957Z,10.14
2019-03-12T21:23:14.502Z,9.83
2019-03-12T21:33:58.391Z,9.59
2019-03-12T21:44:41.861Z,9.04
2019-03-12T21:55:25.629Z,8.02
2019-03-12T22:06:09.572Z,7.26
2019-03-12T22:16:54.369Z,6.69
2019-03-12T22:27:39.061Z,6.43
2019-03-12T22:38:24.172Z,6.35
2019-03-12T22:49:01.777Z,6.30
2019-03-12T22:59:47.082Z,6.18
2019-03-12T23:10:32.283Z,6.18
2019-03-12T23:21:16.640Z,6.17
2019-03-12T23:32:00.284Z,6.15
2019-03-12T23:42:38.547Z,6.04
2019-03-12T23:53:23.004Z,5.88
